createdAt,value
2019-03-13T00:00:38.656Z,1.57
2019-03-13T00:03:07.489Z,2.07
2019-03-13T00:05:35.724Z,1.53
2019-03-13T00:08:03.974Z,2.07
2019-03-13T00:10:32.699Z,1.60
2019-03-13T00:13:01.114Z,1.67
2019-03-13T00:15:29.354Z,1.87
2019-03-13T00:17:57.592Z,1.67
2019-03-13T00:20:25.902Z,1.40
2019-03-13T00:22:54.159Z,1.87
2019-03-13T00:25:22.404Z,1.80
2019-03-13T00:27:50.629Z,1.60
2019-03-13T00:30:18.895Z,1.43
2019-03-13T00:32:47.132Z,1.53
2019-03-13T00:35:15.364Z,1.60
2019-03-13T00:37:43.602Z,1.23
2019-03-13T00:40:12.280Z,1.77
2019-03-13T00:42:40.532Z,2.10
2019-03-13T00:45:10.798Z,1.50
2019-03-13T00:47:39.047Z,1.70
2019-03-13T00:50:09.241Z,1.53
2019-03-13T00:52:37.484Z,1.40
2019-03-13T00:55:06.414Z,1.70
2019-03-13T00:57:34.648Z,2.17
2019-03-13T01:00:03.432Z,1.70
2019-03-13T01:02:39.245Z,1.87
2019-03-13T01:05:10.077Z,1.67
2019-03-13T01:07:38.327Z,1.87
2019-03-13T01:10:08.508Z,1.60
2019-03-13T01:12:36.761Z,1.80
2019-03-13T01:15:07.429Z,1.50
2019-03-13T01:17:38.695Z,1.43
2019-03-13T01:20:07.072Z,1.60
2019-03-13T01:22:35.306Z,1.40
2019-03-13T01:25:03.541Z,1.80
2019-03-13T01:27:31.792Z,1.73
2019-03-13T01:30:00.045Z,1.73
2019-03-13T01:32:35.949Z,1.30
2019-03-13T01:35:06.590Z,1.70
2019-03-13T01:37:34.809Z,1.80
2019-03-13T01:40:03.617Z,1.70
2019-03-13T01:42:31.872Z,1.43
2019-03-13T01:45:00.128Z,1.50
2019-03-13T01:47:28.356Z,1.20
2019-03-13T01:49:56.622Z,1.13
2019-03-13T01:52:24.848Z,1.40
2019-03-13T01:54:53.091Z,1.57
2019-03-13T01:57:21.347Z,1.33
2019-03-13T01:59:49.574Z,1.47
2019-03-13T02:02:17.805Z,1.63
2019-03-13T02:04:46.034Z,1.50
2019-03-13T02:07:14.288Z,1.93
2019-03-13T02:09:42.542Z,1.80
2019-03-13T02:12:10.812Z,1.80
2019-03-13T02:14:39.037Z,1.63
2019-03-13T02:17:07.276Z,1.33
2019-03-13T02:19:35.518Z,2.07
2019-03-13T02:22:03.780Z,2.00
2019-03-13T02:24:32.029Z,1.77
2019-03-13T02:27:00.256Z,1.57
2019-03-13T02:29:28.486Z,2.00
2019-03-13T02:31:56.746Z,1.57
2019-03-13T02:34:24.990Z,1.77
2019-03-13T02:36:53.242Z,1.80
2019-03-13T02:39:21.466Z,2.20
2019-03-13T02:41:49.701Z,2.00
2019-03-13T02:44:17.954Z,1.60
2019-03-13T02:46:46.206Z,1.77
2019-03-13T02:49:14.425Z,2.00
2019-03-13T02:51:42.664Z,1.90
2019-03-13T02:54:11.140Z,1.67
2019-03-13T02:56:39.407Z,2.17
2019-03-13T02:59:07.662Z,2.27
2019-03-13T03:01:37.534Z,1.77
2019-03-13T03:04:06.866Z,2.27
2019-03-13T03:06:35.117Z,2.37
2019-03-13T03:09:06.501Z,2.23
2019-03-13T03:11:34.729Z,2.20
2019-03-13T03:14:02.979Z,2.40
2019-03-13T03:16:31.242Z,2.43
2019-03-13T03:18:59.497Z,2.23
2019-03-13T03:21:27.716Z,2.43
2019-03-13T03:23:55.955Z,2.47
2019-03-13T03:26:24.217Z,2.10
2019-03-13T03:28:52.436Z,2.40
2019-03-13T03:31:20.762Z,2.80
2019-03-13T03:34:00.124Z,2.43
2019-03-13T03:36:29.005Z,2.57
2019-03-13T03:38:57.257Z,2.23
2019-03-13T03:41:25.731Z,2.23
2019-03-13T03:43:53.982Z,2.47
2019-03-13T03:46:22.246Z,2.03
2019-03-13T03:48:50.545Z,2.40
2019-03-13T03:51:18.786Z,2.40
2019-03-13T03:53:47.045Z,2.50
2019-03-13T03:56:15.305Z,2.90
2019-03-13T03:58:43.549Z,2.90
2019-03-13T04:01:11.793Z,2.90
2019-03-13T04:03:40.054Z,2.30
2019-03-13T04:06:08.354Z,2.23
2019-03-13T04:08:38.132Z,1.93
2019-03-13T04:11:06.605Z,2.80
2019-03-13T04:13:34.894Z,2.60
2019-03-13T04:16:03.114Z,2.40
2019-03-13T04:18:31.402Z,2.47
2019-03-13T04:20:59.701Z,2.83
2019-03-13T04:23:27.921Z,2.60
2019-03-13T04:25:56.149Z,2.97
2019-03-13T04:28:24.391Z,2.60
2019-03-13T04:30:52.629Z,2.40
2019-03-13T04:33:20.858Z,2.27
2019-03-13T04:35:49.090Z,2.40
2019-03-13T04:38:17.350Z,2.33
2019-03-13T04:40:45.579Z,2.80
2019-03-13T04:43:13.813Z,2.90
2019-03-13T04:45:42.046Z,2.40
2019-03-13T04:48:10.273Z,2.53
2019-03-13T04:50:38.517Z,2.60
2019-03-13T04:53:06.766Z,2.33
2019-03-13T04:55:35.017Z,2.83
2019-03-13T04:58:03.261Z,3.10
2019-03-13T05:00:31.494Z,2.77
2019-03-13T05:02:59.719Z,2.60
2019-03-13T05:05:36.481Z,2.80
2019-03-13T05:08:04.721Z,2.60
2019-03-13T05:10:32.989Z,2.60
2019-03-13T05:13:01.229Z,2.53
2019-03-13T05:15:29.512Z,2.83
2019-03-13T05:17:57.773Z,2.53
2019-03-13T05:20:25.988Z,2.70
2019-03-13T05:22:54.249Z,2.73
2019-03-13T05:25:22.476Z,3.00
2019-03-13T05:27:50.736Z,2.97
2019-03-13T05:30:19.040Z,2.93
2019-03-13T05:32:47.288Z,2.40
2019-03-13T05:35:15.538Z,2.60
2019-03-13T05:37:43.776Z,3.10
2019-03-13T05:40:12.282Z,2.80
2019-03-13T05:42:40.540Z,2.60
2019-03-13T05:45:09.168Z,3.03
2019-03-13T05:47:37.392Z,2.70
2019-03-13T05:50:08.090Z,2.97
2019-03-13T05:52:36.342Z,2.97
2019-03-13T05:55:05.712Z,3.00
2019-03-13T05:57:33.961Z,3.07
2019-03-13T06:00:02.254Z,2.40
2019-03-13T06:02:30.583Z,3.03
2019-03-13T06:04:58.801Z,3.43
2019-03-13T06:07:27.038Z,3.50
2019-03-13T06:09:55.267Z,3.30
2019-03-13T06:12:23.502Z,3.33
2019-03-13T06:14:51.844Z,3.70
2019-03-13T06:17:20.092Z,3.37
2019-03-13T06:19:48.337Z,3.87
2019-03-13T06:22:16.585Z,3.20
2019-03-13T06:24:44.836Z,3.30
2019-03-13T06:27:13.108Z,3.57
2019-03-13T06:29:41.362Z,3.30
2019-03-13T06:32:09.597Z,3.53
2019-03-13T06:34:37.851Z,3.27
2019-03-13T06:37:06.105Z,3.07
2019-03-13T06:39:34.358Z,3.47
2019-03-13T06:42:02.613Z,3.60
2019-03-13T06:44:30.834Z,3.37
2019-03-13T06:46:59.064Z,2.87
2019-03-13T06:49:27.302Z,2.97
2019-03-13T06:51:55.617Z,3.10
2019-03-13T06:54:23.916Z,3.40
2019-03-13T06:56:52.158Z,3.33
2019-03-13T06:59:24.989Z,3.53
2019-03-13T07:02:13.171Z,3.30
2019-03-13T07:05:01.161Z,3.50
2019-03-13T07:07:31.038Z,3.33
2019-03-13T07:10:03.775Z,3.40
2019-03-13T07:12:50.017Z,3.57
2019-03-13T07:15:19.939Z,3.33
2019-03-13T07:18:05.027Z,2.80
2019-03-13T07:20:34.918Z,3.43
2019-03-13T07:23:04.818Z,3.30
2019-03-13T07:25:46.742Z,3.60
2019-03-13T07:28:31.439Z,3.43
2019-03-13T07:31:01.330Z,3.37
2019-03-13T07:33:47.332Z,3.43
2019-03-13T07:36:26.439Z,3.57
2019-03-13T07:39:08.412Z,3.23
2019-03-13T07:41:41.038Z,3.40
2019-03-13T07:44:19.989Z,3.93
2019-03-13T07:46:49.902Z,3.40
2019-03-13T07:49:19.760Z,3.67
2019-03-13T07:51:49.649Z,3.77
2019-03-13T07:54:28.545Z,3.60
2019-03-13T07:57:04.140Z,3.50
2019-03-13T07:59:52.119Z,3.47
2019-03-13T08:02:21.989Z,3.23
2019-03-13T08:04:51.903Z,3.30
2019-03-13T08:07:21.760Z,3.30
2019-03-13T08:09:51.645Z,3.53
2019-03-13T08:12:39.896Z,3.63
2019-03-13T08:15:15.611Z,3.53
2019-03-13T08:18:01.956Z,3.40
2019-03-13T08:20:34.954Z,3.50
2019-03-13T08:23:07.828Z,3.17
2019-03-13T08:25:40.418Z,3.17
2019-03-13T08:28:22.147Z,3.33
2019-03-13T08:30:52.038Z,3.40
2019-03-13T08:33:27.992Z,2.67
2019-03-13T08:35:57.880Z,3.40
2019-03-13T08:38:27.741Z,2.97
2019-03-13T08:40:57.626Z,3.47
2019-03-13T08:43:39.569Z,3.50
2019-03-13T08:46:15.191Z,3.20
2019-03-13T08:49:01.287Z,3.20
2019-03-13T08:51:31.180Z,3.33
2019-03-13T08:54:01.065Z,3.30
2019-03-13T08:56:33.949Z,3.60
2019-03-13T08:59:15.486Z,3.27
2019-03-13T09:01:51.133Z,3.40
2019-03-13T09:04:36.024Z,3.50
2019-03-13T09:07:05.923Z,3.30
2019-03-13T09:09:52.270Z,3.33
2019-03-13T09:12:28.318Z,3.47
2019-03-13T09:14:58.186Z,3.03
2019-03-13T09:17:31.033Z,3.30
2019-03-13T09:20:00.921Z,3.63
2019-03-13T09:22:30.810Z,2.90
2019-03-13T09:25:17.112Z,3.00
2019-03-13T09:28:02.988Z,3.07
2019-03-13T09:30:32.886Z,3.37
2019-03-13T09:33:17.723Z,2.67
2019-03-13T09:35:56.926Z,3.27
2019-03-13T09:38:26.800Z,3.40
2019-03-13T09:40:56.798Z,3.27
2019-03-13T09:43:32.452Z,3.40
2019-03-13T09:46:17.700Z,3.27
2019-03-13T09:48:50.516Z,3.20
2019-03-13T09:51:29.420Z,3.30
2019-03-13T09:54:01.969Z,3.10
2019-03-13T09:56:31.851Z,3.47
2019-03-13T09:59:10.606Z,3.37
2019-03-13T10:01:43.495Z,3.17
2019-03-13T10:07:25.559Z,2.77
2019-03-13T10:10:25.633Z,2.43
2019-03-13T10:12:58.327Z,3.00
2019-03-13T10:15:28.213Z,2.90
2019-03-13T10:21:13.745Z,3.10
2019-03-13T10:23:52.428Z,2.80
2019-03-13T10:26:37.286Z,3.20
2019-03-13T10:29:07.180Z,2.80
2019-03-13T10:31:55.026Z,2.93
2019-03-13T10:34:37.112Z,2.93
2019-03-13T10:37:23.375Z,2.67
2019-03-13T10:39:59.084Z,2.87
2019-03-13T10:45:31.857Z,3.10
2019-03-13T10:48:10.757Z,3.20
2019-03-13T10:50:40.666Z,3.13
2019-03-13T10:53:13.556Z,3.47
2019-03-13T10:55:46.510Z,3.20
2019-03-13T10:58:16.389Z,3.03
2019-03-13T11:00:48.997Z,2.93
2019-03-13T11:03:18.911Z,3.20
2019-03-13T11:05:54.599Z,3.57
2019-03-13T11:08:24.504Z,3.40
2019-03-13T11:11:09.712Z,2.90
2019-03-13T11:13:40.054Z,3.03
2019-03-13T11:16:09.982Z,2.97
2019-03-13T11:18:39.898Z,2.87
2019-03-13T11:21:15.713Z,3.10
2019-03-13T11:24:01.111Z,3.20
2019-03-13T11:26:47.335Z,3.00
2019-03-13T11:29:47.154Z,3.00
2019-03-13T11:32:35.474Z,3.10
2019-03-13T11:35:06.704Z,2.90
2019-03-13T11:37:42.521Z,2.53
2019-03-13T11:40:17.949Z,3.30
2019-03-13T11:42:51.772Z,2.87
2019-03-13T11:45:24.213Z,2.80
2019-03-13T11:48:12.407Z,2.93
2019-03-13T11:50:42.281Z,3.40
2019-03-13T11:53:14.892Z,2.87
2019-03-13T11:55:45.047Z,2.90
2019-03-13T11:58:15.487Z,2.97
2019-03-13T12:00:54.277Z,2.83
2019-03-13T12:03:24.215Z,3.00
2019-03-13T12:06:15.306Z,2.67
2019-03-13T12:08:53.652Z,3.13
2019-03-13T12:11:29.537Z,2.90
2019-03-13T12:14:14.713Z,3.10
2019-03-13T12:17:02.953Z,3.00
2019-03-13T12:19:39.057Z,2.80
2019-03-13T12:25:16.840Z,2.70
2019-03-13T12:27:49.700Z,2.80
2019-03-13T12:30:22.570Z,2.97
2019-03-13T12:32:58.425Z,2.60
2019-03-13T12:35:28.312Z,2.93
2019-03-13T12:38:13.425Z,2.80
2019-03-13T12:40:59.532Z,2.57
2019-03-13T12:43:45.646Z,2.47
2019-03-13T12:46:51.032Z,2.93
2019-03-13T12:49:57.421Z,2.50
2019-03-13T12:52:34.206Z,2.57
2019-03-13T12:58:23.473Z,2.87
2019-03-13T13:01:01.968Z,2.83
2019-03-13T13:06:54.450Z,3.10
2019-03-13T13:12:55.329Z,2.90
2019-03-13T13:15:43.605Z,2.80
2019-03-13T13:18:19.310Z,2.73
2019-03-13T13:20:47.552Z,2.80
2019-03-13T13:23:15.793Z,2.33
2019-03-13T13:25:44.017Z,2.83
2019-03-13T13:28:12.256Z,2.47
2019-03-13T13:30:40.507Z,2.50
2019-03-13T13:33:08.746Z,2.47
2019-03-13T13:35:37.009Z,2.53
2019-03-13T13:38:06.175Z,2.60
2019-03-13T13:40:52.395Z,2.77
2019-03-13T13:43:20.600Z,2.60
2019-03-13T13:49:33.041Z,2.50
2019-03-13T13:52:01.337Z,2.83
2019-03-13T13:54:29.605Z,2.87
2019-03-13T13:57:16.380Z,2.70
2019-03-13T13:59:44.620Z,2.27
2019-03-13T14:02:12.852Z,2.90
2019-03-13T14:04:41.118Z,2.60
2019-03-13T14:07:09.366Z,2.53
2019-03-13T14:09:37.580Z,2.17
2019-03-13T14:12:05.866Z,2.47
2019-03-13T14:14:34.165Z,2.23
2019-03-13T14:17:02.401Z,2.70
2019-03-13T14:19:48.511Z,2.47
2019-03-13T14:22:16.733Z,2.53
2019-03-13T14:24:44.985Z,2.10
2019-03-13T14:27:49.482Z,2.10
2019-03-13T14:30:55.062Z,2.57
2019-03-13T14:33:41.662Z,2.57
2019-03-13T14:36:10.318Z,2.33
2019-03-13T14:38:38.560Z,2.53
2019-03-13T14:41:26.540Z,2.03
2019-03-13T14:43:54.810Z,2.30
2019-03-13T14:46:23.035Z,1.93
2019-03-13T14:49:09.515Z,2.43
2019-03-13T14:54:23.913Z,2.33
2019-03-13T14:56:52.169Z,2.67
2019-03-13T14:59:20.484Z,2.23
2019-03-13T15:02:06.804Z,2.13
2019-03-13T15:04:35.042Z,1.87
2019-03-13T15:07:03.283Z,2.53
2019-03-13T15:09:49.632Z,2.10
2019-03-13T15:12:17.950Z,2.57
2019-03-13T15:14:46.186Z,2.33
2019-03-13T15:17:32.527Z,2.17
2019-03-13T15:20:00.749Z,2.30
2019-03-13T15:22:28.981Z,2.37
2019-03-13T15:24:57.238Z,2.87
2019-03-13T15:27:44.909Z,2.20
2019-03-13T15:30:30.814Z,2.40
2019-03-13T15:33:17.169Z,2.40
2019-03-13T15:35:45.413Z,2.20
2019-03-13T15:38:13.666Z,2.47
2019-03-13T15:40:41.920Z,1.93
2019-03-13T15:43:10.159Z,2.43
2019-03-13T15:45:38.433Z,2.50
2019-03-13T15:48:06.706Z,2.53
2019-03-13T15:50:34.922Z,2.47
2019-03-13T15:53:21.539Z,2.30
2019-03-13T15:55:50.237Z,2.23
2019-03-13T15:58:18.495Z,2.43
2019-03-13T16:03:50.921Z,2.13
2019-03-13T16:06:19.205Z,2.27
2019-03-13T16:08:47.516Z,2.47
2019-03-13T16:11:15.790Z,2.20
2019-03-13T16:14:02.120Z,2.50
2019-03-13T16:16:30.369Z,2.17
2019-03-13T16:18:58.610Z,2.53
2019-03-13T16:21:26.844Z,2.20
2019-03-13T16:23:55.092Z,2.30
2019-03-13T16:26:23.337Z,2.40
2019-03-13T16:29:30.797Z,2.30
2019-03-13T16:31:58.320Z,2.07
2019-03-13T16:35:03.208Z,2.30
2019-03-13T16:37:31.429Z,2.07
2019-03-13T16:40:19.085Z,2.57
2019-03-13T16:43:05.524Z,2.27
2019-03-13T16:45:52.070Z,2.50
2019-03-13T16:48:20.332Z,1.93
2019-03-13T16:50:48.589Z,2.40
2019-03-13T16:53:16.865Z,2.27
2019-03-13T16:56:03.231Z,2.43
2019-03-13T16:58:49.971Z,1.80
2019-03-13T17:01:18.213Z,2.10
2019-03-13T17:07:27.873Z,2.53
2019-03-13T17:09:56.590Z,2.30
2019-03-13T17:12:24.813Z,2.97
2019-03-13T17:14:53.073Z,3.53
2019-03-13T17:17:21.798Z,3.50
2019-03-13T17:19:50.061Z,2.90
2019-03-13T17:22:18.338Z,3.70
2019-03-13T17:24:46.624Z,3.20
2019-03-13T17:27:33.341Z,3.63
2019-03-13T17:30:01.633Z,3.57
2019-03-13T17:32:29.954Z,3.67
2019-03-13T17:35:16.493Z,4.63
2019-03-13T17:37:45.669Z,3.33
2019-03-13T17:40:16.069Z,4.37
2019-03-13T17:43:02.625Z,4.10
2019-03-13T17:45:30.872Z,3.90
2019-03-13T17:48:35.424Z,4.00
2019-03-13T17:51:03.700Z,3.70
2019-03-13T17:53:31.957Z,3.80
2019-03-13T17:56:00.195Z,3.60
2019-03-13T17:58:46.865Z,3.50
2019-03-13T18:01:33.106Z,3.80
2019-03-13T18:04:19.434Z,3.50
2019-03-13T18:06:48.226Z,3.60
2019-03-13T18:12:03.654Z,3.43
2019-03-13T18:14:32.332Z,3.60
2019-03-13T18:17:19.318Z,3.83
2019-03-13T18:19:50.022Z,3.83
2019-03-13T18:22:17.562Z,3.60
2019-03-13T18:24:45.813Z,3.70
2019-03-13T18:27:14.036Z,3.60
2019-03-13T18:29:42.325Z,3.50
2019-03-13T18:32:10.580Z,3.27
2019-03-13T18:34:38.823Z,3.40
2019-03-13T18:37:07.149Z,3.33
2019-03-13T18:39:35.378Z,3.50
2019-03-13T18:42:03.645Z,3.63
2019-03-13T18:44:49.953Z,3.90
2019-03-13T18:47:18.232Z,3.70
2019-03-13T18:49:46.448Z,3.37
2019-03-13T18:52:14.681Z,3.60
2019-03-13T18:54:44.920Z,3.70
2019-03-13T18:59:59.234Z,3.30
2019-03-13T19:02:27.498Z,3.57
2019-03-13T19:05:13.921Z,3.40
2019-03-13T19:07:43.621Z,3.60
2019-03-13T19:10:14.909Z,3.70
2019-03-13T19:12:43.130Z,3.60
2019-03-13T19:15:19.417Z,3.17
2019-03-13T19:17:47.420Z,3.50
2019-03-13T19:20:35.374Z,3.40
2019-03-13T19:23:21.790Z,3.77
2019-03-13T19:25:50.031Z,3.40
2019-03-13T19:28:18.272Z,3.60
2019-03-13T19:30:46.541Z,3.90
2019-03-13T19:33:14.825Z,3.60
2019-03-13T19:35:43.096Z,3.40
2019-03-13T19:38:12.706Z,3.30
2019-03-13T19:40:40.969Z,3.47
2019-03-13T19:43:09.214Z,3.30
2019-03-13T19:46:13.922Z,3.20
2019-03-13T19:51:28.437Z,3.20
2019-03-13T19:53:56.682Z,3.80
2019-03-13T19:56:24.950Z,3.33
2019-03-13T19:58:53.231Z,3.13
2019-03-13T20:01:21.518Z,3.03
2019-03-13T20:03:55.391Z,3.50
2019-03-13T20:06:21.162Z,3.30
2019-03-13T20:11:36.717Z,3.30
2019-03-13T20:14:41.471Z,3.17
2019-03-13T20:17:09.904Z,3.20
2019-03-13T20:19:38.166Z,3.20
2019-03-13T20:22:06.826Z,3.10
2019-03-13T20:24:35.103Z,3.07
2019-03-13T20:27:03.346Z,3.40
2019-03-13T20:29:33.246Z,2.93
2019-03-13T20:32:01.538Z,3.03
2019-03-13T20:34:29.772Z,3.13
2019-03-13T20:36:58.792Z,3.53
2019-03-13T20:39:27.815Z,3.27
2019-03-13T20:42:16.616Z,3.17
2019-03-13T20:45:03.124Z,3.20
2019-03-13T20:48:07.647Z,3.00
2019-03-13T20:50:55.001Z,3.37
2019-03-13T20:53:23.244Z,2.87
2019-03-13T21:01:44.746Z,2.70
2019-03-13T21:04:31.098Z,3.60
2019-03-13T21:06:59.361Z,2.93
2019-03-13T21:09:27.638Z,3.17
2019-03-13T21:12:32.378Z,3.60
2019-03-13T21:15:00.651Z,3.27
2019-03-13T21:17:28.922Z,3.17
2019-03-13T21:19:57.178Z,2.87
2019-03-13T21:22:26.049Z,3.03
2019-03-13T21:24:54.365Z,3.20
2019-03-13T21:30:30.242Z,3.20
2019-03-13T21:32:58.505Z,3.40
2019-03-13T21:35:26.728Z,3.30
2019-03-13T21:37:55.003Z,2.73
2019-03-13T21:43:10.534Z,3.30
2019-03-13T21:45:41.513Z,2.97
2019-03-13T21:48:08.741Z,2.93
2019-03-13T21:50:55.351Z,3.30
2019-03-13T21:53:23.599Z,3.20
2019-03-13T21:55:51.860Z,3.80
2019-03-13T21:58:20.111Z,3.17
2019-03-13T22:01:18.822Z,3.73
2019-03-13T22:03:54.838Z,3.10
2019-03-13T22:06:40.981Z,3.00
2019-03-13T22:09:09.273Z,3.03
2019-03-13T22:11:55.649Z,3.03
2019-03-13T22:14:42.366Z,3.50
2019-03-13T22:17:10.646Z,3.27
2019-03-13T22:19:38.868Z,3.40
2019-03-13T22:22:25.684Z,3.43
2019-03-13T22:24:53.920Z,3.37
2019-03-13T22:27:22.173Z,3.30
2019-03-13T22:30:08.802Z,3.67
2019-03-13T22:32:37.061Z,3.00
2019-03-13T22:38:28.130Z,3.40
2019-03-13T22:41:14.744Z,3.00
2019-03-13T22:43:44.854Z,3.60
2019-03-13T22:46:13.008Z,3.87
2019-03-13T22:48:41.297Z,3.77
2019-03-13T22:51:27.736Z,3.63
2019-03-13T22:53:56.008Z,3.27
2019-03-13T22:56:42.392Z,3.60
2019-03-13T22:59:10.658Z,3.83
2019-03-13T23:01:39.316Z,3.77
2019-03-13T23:04:07.691Z,3.60
2019-03-13T23:06:35.946Z,3.70
2019-03-13T23:09:04.840Z,3.40
2019-03-13T23:11:51.252Z,3.53
2019-03-13T23:14:37.864Z,3.47
2019-03-13T23:17:24.792Z,3.80
2019-03-13T23:19:53.020Z,3.60
2019-03-13T23:22:58.020Z,3.43
2019-03-13T23:28:12.651Z,3.23
2019-03-13T23:30:40.872Z,3.47
2019-03-13T23:33:09.110Z,3.63
2019-03-13T23:35:37.586Z,3.83
2019-03-13T23:38:05.819Z,3.63
2019-03-13T23:40:34.064Z,3.67
2019-03-13T23:43:02.310Z,3.23
2019-03-13T23:45:30.587Z,3.50
2019-03-13T23:47:58.922Z,3.47
2019-03-13T23:50:28.148Z,3.60
2019-03-13T23:52:56.402Z,3.50
2019-03-13T23:55:26.450Z,2.90
2019-03-13T23:57:54.706Z,3.40
